Wilsonburg, West Virginia
Current Conditions -  °F | °C
As of 2:53 PM on Sunday 23 Nov 2014 (Local Time) from KCKB Reporting Station
Clear Clear  
Wind Chill: 64°   Ceiling: Unl
Heat Index: 64°   Visibility: 10mi
Dew Point: 41°   Wind: 8mph
Humidity: 43%   Direction: 130°SE
Pressure: 29.88"   Gusts: 20mph
Location:  39.29°N, 80.4°W
Report Text: KCKB 231953Z 13007G17KT 090V170 10SM CLR 18/05 A2988 RMK AO2 SLP114 T01780050
Loading
Personal Weather Stations






























Interactive Weather Map New forecast layout! Learn more

10-Day Weather Forecast

Advertisements
Track Severe Weather on mobile